Time;durP1;ratioP1;P1;durP2;ratioP2;P2;SDS_P1;SDS_P2;PMS_P1;PMS_P2;Temp;Humidity;BMP_temperature;BMP_pressure;BME280_temperature;BME280_humidity;BME280_pressure;Samples;Min_cycle;Max_cycle;Signal;HPM_P1;HPM_P2
2022/04/17 00:02:00;;;;;;;10.05;5.85;;;4.70;93.70;;;;;;5091846;28;19952;-66
2022/04/17 00:04:28;;;;;;;9.77;6.03;;;4.70;93.60;;;;;;5102664;28;20048;-66
2022/04/17 00:06:56;;;;;;;10.27;6.22;;;4.70;93.70;;;;;;5100367;28;20438;-66
2022/04/17 00:09:24;;;;;;;12.75;6.43;;;4.60;93.80;;;;;;5097934;28;20044;-66
2022/04/17 00:11:52;;;;;;;10.25;6.03;;;4.60;94.10;;;;;;5100973;28;20043;-66
2022/04/17 00:14:31;;;;;;;13.02;6.45;;;4.50;93.90;;;;;;5099538;28;20383;-66
2022/04/17 00:16:57;;;;;;;11.60;6.25;;;4.60;94.20;;;;;;5077525;28;20502;-66
2022/04/17 00:19:43;;;;;;;7.20;4.82;;;4.60;94.10;;;;;;5086478;28;20040;-66
2022/04/17 00:22:12;;;;;;;9.00;5.57;;;4.60;94.20;;;;;;5085194;28;20102;-66
2022/04/17 00:24:40;;;;;;;11.05;5.90;;;4.60;94.50;;;;;;5088766;28;20474;-66
2022/04/17 00:27:06;;;;;;;15.40;5.93;;;4.40;94.60;;;;;;5089027;28;20127;-66
2022/04/17 00:29:32;;;;;;;9.07;5.50;;;4.40;94.80;;;;;;5088618;28;20123;-66
2022/04/17 00:31:58;;;;;;;11.25;5.57;;;4.30;95.70;;;;;;5085443;28;20040;-66
2022/04/17 00:34:34;;;;;;;9.40;5.93;;;4.20;95.90;;;;;;5085603;28;20119;-66
2022/04/17 00:37:00;;;;;;;10.52;5.72;;;4.20;95.80;;;;;;5086015;28;20127;-66
2022/04/17 00:39:29;;;;;;;9.95;6.00;;;4.20;95.50;;;;;;5086983;28;20071;-66
2022/04/17 00:42:05;;;;;;;11.60;5.80;;;4.20;95.50;;;;;;5087313;28;20105;-66
2022/04/17 00:44:32;;;;;;;10.52;5.97;;;4.20;96.20;;;;;;5082785;28;20052;-66
2022/04/17 00:46:58;;;;;;;12.15;6.38;;;4.20;95.90;;;;;;5080871;28;20052;-66
2022/04/17 00:49:24;;;;;;;10.95;6.00;;;4.20;95.70;;;;;;5086280;28;20044;-66
2022/04/17 00:51:51;;;;;;;11.30;6.18;;;4.20;95.70;;;;;;5086145;28;20075;-66
2022/04/17 00:54:22;;;;;;;12.35;6.13;;;4.30;95.60;;;;;;5086222;28;20043;-66
2022/04/17 00:56:49;;;;;;;10.55;5.93;;;4.30;95.60;;;;;;5086462;28;20620;-66
2022/04/17 00:59:22;;;;;;;10.50;5.85;;;4.30;95.60;;;;;;5078313;28;20047;-66
2022/04/17 01:01:48;;;;;;;10.02;5.32;;;4.20;95.80;;;;;;5073981;28;20056;-66
2022/04/17 01:04:14;;;;;;;10.40;5.50;;;4.20;96.40;;;;;;5084963;28;20111;-66
2022/04/17 01:06:43;;;;;;;11.43;5.50;;;4.10;96.60;;;;;;5083290;28;20081;-66
2022/04/17 01:09:09;;;;;;;9.00;5.05;;;4.10;97.10;;;;;;5086409;28;20047;-66
2022/04/17 01:11:39;;;;;;;9.45;4.88;;;4.00;97.30;;;;;;5086347;28;20747;-66
2022/04/17 01:14:08;;;;;;;8.93;4.65;;;3.80;97.60;;;;;;5081337;28;20303;-66
2022/04/17 01:16:36;;;;;;;12.95;5.80;;;3.80;97.70;;;;;;5085636;28;20035;-66
2022/04/17 01:19:12;;;;;;;9.82;4.97;;;3.80;97.60;;;;;;5085571;28;20044;-66
2022/04/17 01:21:49;;;;;;;8.93;5.32;;;3.90;97.40;;;;;;5086915;28;20036;-66
2022/04/17 01:27:09;;;;;;;10.75;5.30;;;3.80;97.50;;;;;;5086374;28;20044;-66
2022/04/17 01:29:38;;;;;;;10.82;5.35;;;3.80;97.90;;;;;;5086383;28;20127;-67
2022/04/17 01:32:09;;;;;;;11.20;6.45;;;3.70;98.50;;;;;;5084807;28;20082;-67
2022/04/17 01:34:38;;;;;;;11.68;5.13;;;3.70;98.60;;;;;;5084747;28;20048;-66
2022/04/17 01:37:17;;;;;;;10.68;5.72;;;3.60;98.70;;;;;;5086022;28;20036;-66
2022/04/17 01:39:51;;;;;;;13.55;6.00;;;3.50;99.50;;;;;;5086131;28;20040;-66
2022/04/17 01:42:17;;;;;;;10.27;5.05;;;3.40;99.90;;;;;;5084497;28;20411;-66
2022/04/17 01:44:46;;;;;;;11.30;6.80;;;3.30;99.90;;;;;;5083535;28;20089;-66
2022/04/17 01:47:18;;;;;;;9.90;4.82;;;3.20;99.90;;;;;;5082504;28;20119;-66
2022/04/17 01:49:46;;;;;;;8.88;5.00;;;3.20;99.90;;;;;;5084849;28;20040;-66
2022/04/17 01:52:11;;;;;;;9.77;4.63;;;3.20;99.90;;;;;;5084334;28;20061;-66
2022/04/17 01:54:37;;;;;;;10.07;5.45;;;3.10;99.90;;;;;;5084864;28;20499;-66
2022/04/17 01:57:03;;;;;;;9.98;5.68;;;3.00;99.90;;;;;;5085233;28;20375;-69
2022/04/17 01:59:34;;;;;;;9.75;5.53;;;3.00;99.90;;;;;;5077504;28;20045;-68
2022/04/17 02:02:02;;;;;;;11.98;5.07;;;2.90;99.90;;;;;;5076743;28;20044;-68
2022/04/17 02:04:32;;;;;;;9.55;5.15;;;2.80;99.90;;;;;;5083496;28;20067;-68
2022/04/17 02:07:00;;;;;;;12.77;6.15;;;2.80;99.90;;;;;;5084095;28;20106;-68
2022/04/17 02:09:26;;;;;;;9.95;5.65;;;2.80;99.90;;;;;;5083925;28;20055;-68
2022/04/17 02:11:53;;;;;;;9.18;5.05;;;2.80;99.90;;;;;;5084554;28;20048;-68
2022/04/17 02:14:24;;;;;;;10.20;5.28;;;2.80;99.90;;;;;;5086645;28;20035;-68
2022/04/17 02:16:53;;;;;;;7.70;5.55;;;2.80;99.90;;;;;;5086683;28;20046;-68
2022/04/17 02:19:29;;;;;;;11.68;5.60;;;2.80;99.90;;;;;;5086529;28;20035;-68
2022/04/17 02:21:55;;;;;;;8.23;5.28;;;2.70;99.90;;;;;;5086877;28;20087;-68
2022/04/17 02:24:32;;;;;;;10.75;6.57;;;2.60;99.90;;;;;;5086517;28;20078;-68
2022/04/17 02:27:05;;;;;;;12.13;6.40;;;2.60;99.90;;;;;;5087003;28;20051;-68
2022/04/17 02:29:33;;;;;;;10.52;5.68;;;2.60;99.90;;;;;;5086381;28;20736;-68
2022/04/17 02:32:06;;;;;;;8.82;5.90;;;2.60;99.90;;;;;;5061574;28;20040;-68
2022/04/17 02:34:35;;;;;;;12.65;6.68;;;2.50;99.90;;;;;;5066625;28;20036;-68
2022/04/17 02:37:06;;;;;;;10.15;5.90;;;2.50;99.90;;;;;;5085948;28;20094;-68
2022/04/17 02:39:35;;;;;;;11.13;5.50;;;2.50;99.90;;;;;;5086663;28;20040;-68
2022/04/17 02:42:01;;;;;;;12.98;6.18;;;2.50;99.90;;;;;;5085829;28;20050;-68
2022/04/17 02:44:29;;;;;;;9.98;6.03;;;2.50;99.90;;;;;;5085087;28;20036;-68
2022/04/17 02:49:47;;;;;;;10.15;5.47;;;2.40;99.90;;;;;;5086198;28;20135;-68
2022/04/17 02:52:20;;;;;;;10.77;6.55;;;2.40;99.90;;;;;;5086223;28;20115;-68
2022/04/17 02:54:53;;;;;;;11.13;6.18;;;2.40;99.90;;;;;;5080155;28;20447;-68
2022/04/17 02:57:31;;;;;;;8.43;5.55;;;2.30;99.90;;;;;;5085829;28;20044;-68
2022/04/17 02:59:57;;;;;;;10.82;6.07;;;2.30;99.90;;;;;;5080320;28;20032;-68
2022/04/17 03:07:58;;;;;;;10.07;5.65;;;2.20;99.90;;;;;;5086133;28;20079;-68
2022/04/17 03:10:27;;;;;;;12.45;5.97;;;2.30;99.90;;;;;;5085886;28;20083;-68
2022/04/17 03:13:01;;;;;;;14.55;5.78;;;2.40;99.90;;;;;;5084074;28;20036;-68
2022/04/17 03:15:27;;;;;;;8.50;5.35;;;2.30;99.90;;;;;;5085007;28;20143;-68
2022/04/17 03:17:53;;;;;;;9.77;5.93;;;2.30;99.90;;;;;;5084763;28;20151;-69
2022/04/17 03:20:22;;;;;;;12.57;6.10;;;2.40;99.90;;;;;;5084347;28;20093;-68
2022/04/17 03:22:51;;;;;;;10.70;6.32;;;2.30;99.90;;;;;;5085694;28;20109;-68
2022/04/17 03:25:16;;;;;;;10.57;6.03;;;2.30;99.90;;;;;;5085244;28;20032;-68
2022/04/17 03:27:50;;;;;;;10.55;6.20;;;2.30;99.90;;;;;;5084258;28;20560;-68
2022/04/17 03:30:17;;;;;;;13.50;4.93;;;2.30;99.90;;;;;;5077211;28;20032;-68
2022/04/17 03:32:49;;;;;;;13.07;5.75;;;2.30;99.90;;;;;;5085898;28;20039;-68
2022/04/17 03:35:16;;;;;;;9.30;5.80;;;2.30;99.90;;;;;;5084271;28;20032;-68
2022/04/17 03:37:48;;;;;;;10.45;5.38;;;2.20;99.90;;;;;;5084090;28;20048;-68
2022/04/17 03:40:18;;;;;;;14.43;6.00;;;2.20;99.90;;;;;;5085459;28;20059;-68
2022/04/17 03:42:45;;;;;;;12.90;5.43;;;2.30;99.90;;;;;;5071418;28;20040;-68
2022/04/17 03:45:11;;;;;;;15.23;6.65;;;2.20;99.90;;;;;;5085377;28;20122;-68
2022/04/17 03:47:46;;;;;;;8.93;5.20;;;2.30;99.90;;;;;;5085516;28;20083;-68
2022/04/17 03:50:20;;;;;;;11.35;5.40;;;2.20;99.90;;;;;;5085930;28;20054;-68
2022/04/17 03:52:48;;;;;;;11.80;5.38;;;2.30;99.90;;;;;;5086414;28;20032;-68
2022/04/17 03:55:18;;;;;;;9.25;5.13;;;2.10;99.90;;;;;;5090057;28;20496;-68
2022/04/17 03:57:44;;;;;;;10.18;5.75;;;2.10;99.90;;;;;;5088840;28;20036;-68
2022/04/17 04:00:12;;;;;;;10.10;5.65;;;2.10;99.90;;;;;;5088924;28;20047;-68
2022/04/17 04:02:39;;;;;;;10.45;5.22;;;2.10;99.90;;;;;;5089570;28;20044;-68
2022/04/17 04:05:08;;;;;;;8.95;5.30;;;2.10;99.90;;;;;;5089657;28;20055;-68
2022/04/17 04:07:37;;;;;;;9.73;5.63;;;2.10;99.90;;;;;;5083669;28;20035;-68
2022/04/17 04:10:08;;;;;;;7.93;5.07;;;2.00;99.90;;;;;;5087342;28;20028;-68
2022/04/17 04:12:39;;;;;;;12.40;5.32;;;1.90;99.90;;;;;;5087782;28;20039;-67
2022/04/17 04:15:08;;;;;;;12.38;6.47;;;1.90;99.90;;;;;;5089596;28;20032;-68
2022/04/17 04:17:40;;;;;;;9.38;5.03;;;1.90;99.90;;;;;;5088984;28;20036;-68
2022/04/17 04:20:09;;;;;;;7.22;4.75;;;1.90;99.90;;;;;;5069534;28;20048;-68
2022/04/17 04:22:35;;;;;;;9.23;4.53;;;1.90;99.90;;;;;;5081959;28;20060;-68
2022/04/17 04:25:04;;;;;;;9.18;5.07;;;1.90;99.90;;;;;;5089790;28;20064;-68
2022/04/17 04:30:25;;;;;;;10.38;5.85;;;2.00;99.90;;;;;;5068457;28;20480;-68
2022/04/17 04:32:56;;;;;;;11.50;5.55;;;1.90;99.90;;;;;;5069813;28;20495;-67
2022/04/17 04:35:26;;;;;;;7.30;4.75;;;1.90;99.90;;;;;;5088631;28;20040;-67
2022/04/17 04:37:52;;;;;;;9.52;5.18;;;1.90;99.90;;;;;;5085059;28;20032;-67
2022/04/17 04:40:21;;;;;;;7.03;4.68;;;1.90;99.90;;;;;;5089132;28;20062;-67
2022/04/17 04:42:48;;;;;;;9.68;4.90;;;2.00;99.90;;;;;;5088339;28;20040;-67
2022/04/17 04:48:01;;;;;;;11.40;5.45;;;2.00;99.90;;;;;;5088266;28;20036;-68
2022/04/17 04:50:32;;;;;;;8.57;4.45;;;1.90;99.90;;;;;;5086954;28;20035;-67
2022/04/17 04:52:58;;;;;;;10.43;4.85;;;2.40;99.90;;;;;;5081870;28;20035;-69
2022/04/17 04:55:26;;;;;;;8.38;4.10;;;3.30;99.90;;;;;;5082961;28;20097;-66
2022/04/17 04:58:01;;;;;;;7.32;4.43;;;4.40;99.90;;;;;;5082989;28;20028;-69
2022/04/17 05:00:34;;;;;;;8.20;4.20;;;5.40;99.90;;;;;;5076228;28;20553;-68
2022/04/17 05:03:03;;;;;;;8.65;3.88;;;6.40;98.60;;;;;;5085751;28;20040;-67
2022/04/17 05:05:28;;;;;;;;;;;7.50;96.80;;;;;;5087332;28;20058;-66
2022/04/17 05:07:57;;;;;;;8.70;3.80;;;8.20;94.30;;;;;;5086613;28;19973;-66
2022/04/17 05:10:31;;;;;;;5.03;3.67;;;8.70;92.90;;;;;;5088509;28;20537;-67
2022/04/17 05:12:57;;;;;;;4.88;3.45;;;9.60;92.30;;;;;;5084802;28;20032;-67
2022/04/17 05:15:23;;;;;;;;;;;9.40;91.50;;;;;;5087722;28;20043;-65
2022/04/17 05:17:48;;;;;;;5.35;3.10;;;8.30;92.00;;;;;;5088933;28;19922;-67
2022/04/17 05:20:17;;;;;;;;;;;8.20;94.00;;;;;;5088867;28;20048;-67
2022/04/17 05:22:44;;;;;;;11.02;4.60;;;9.10;92.00;;;;;;5087540;28;19928;-67
2022/04/17 05:25:10;;;;;;;4.68;3.90;;;10.30;89.70;;;;;;5087533;28;20055;-67
2022/04/17 05:27:35;;;;;;;;;;;11.70;86.40;;;;;;5086428;28;20040;-67
2022/04/17 05:30:01;;;;;;;5.30;3.45;;;12.60;78.80;;;;;;5087022;28;19927;-68
2022/04/17 05:32:27;;;;;;;;;;;12.20;74.70;;;;;;5085561;28;20586;-67
2022/04/17 05:34:52;;;;;;;3.90;2.88;;;13.30;75.30;;;;;;5086355;28;19927;-67
2022/04/17 05:37:18;;;;;;;;;;;14.20;71.50;;;;;;5086387;28;20043;-68
2022/04/17 05:39:43;;;;;;;5.25;3.10;;;14.80;68.00;;;;;;5086442;28;20004;-67
2022/04/17 05:42:10;;;;;;;5.85;2.75;;;15.10;68.50;;;;;;5087136;28;20059;-69
2022/04/17 05:44:37;;;;;;;7.57;3.83;;;14.70;62.60;;;;;;5086369;28;20545;-68
2022/04/17 05:47:03;;;;;;;4.38;2.83;;;13.50;63.60;;;;;;5085995;28;20177;-69
2022/04/17 05:49:28;;;;;;;5.78;3.55;;;12.90;68.50;;;;;;5086092;28;20044;-68
2022/04/17 05:51:57;;;;;;;;;;;12.40;69.20;;;;;;5086824;28;20043;-68
2022/04/17 05:54:23;;;;;;;5.38;3.53;;;12.70;69.80;;;;;;5086472;28;19961;-68
2022/04/17 05:56:48;;;;;;;20.60;7.28;;;12.20;65.70;;;;;;5084553;28;20056;-69
2022/04/17 05:59:14;;;;;;;;;;;11.90;68.90;;;;;;5084568;28;20531;-69
2022/04/17 06:01:40;;;;;;;8.45;3.92;;;12.80;67.30;;;;;;5076886;28;19916;-67
2022/04/17 06:04:05;;;;;;;;;;;13.70;63.90;;;;;;5079106;28;20058;-67
2022/04/17 06:06:31;;;;;;;10.40;3.50;;;13.40;63.30;;;;;;5087081;28;19920;-66
2022/04/17 06:08:57;;;;;;;;;;;12.60;67.50;;;;;;5085938;28;20043;-67
2022/04/17 06:11:23;;;;;;;7.35;3.65;;;12.00;66.20;;;;;;5086675;28;19916;-68
2022/04/17 06:13:49;;;;;;;;;;;11.80;67.70;;;;;;5086991;28;20156;-68
2022/04/17 06:16:14;;;;;;;7.53;3.25;;;12.80;65.40;;;;;;5085316;28;19919;-69
2022/04/17 06:18:40;;;;;;;;;;;14.30;60.80;;;;;;5086604;28;20044;-67
2022/04/17 06:21:06;;;;;;;5.80;2.33;;;15.70;59.00;;;;;;5085456;28;19919;-68
2022/04/17 06:23:31;;;;;;;4.25;2.50;;;16.40;53.50;;;;;;5086105;28;20036;-68
2022/04/17 06:25:59;;;;;;;4.63;2.92;;;16.20;56.00;;;;;;5085221;28;20040;-66
2022/04/17 06:28:24;;;;;;;11.10;3.38;;;15.90;52.90;;;;;;5083794;28;20089;-68
2022/04/17 06:30:50;;;;;;;;;;;14.50;55.30;;;;;;5085508;28;20036;-68
2022/04/17 06:33:15;;;;;;;6.97;3.03;;;13.80;57.60;;;;;;5085683;28;19916;-68
2022/04/17 06:35:41;;;;;;;;;;;12.90;59.30;;;;;;5086423;28;20040;-68
2022/04/17 06:38:10;;;;;;;3.92;2.83;;;12.70;62.10;;;;;;5085550;28;19916;-68
2022/04/17 06:40:36;;;;;;;3.30;2.22;;;13.20;60.70;;;;;;5082737;28;20445;-68
2022/04/17 06:43:08;;;;;;;7.63;3.42;;;14.30;57.90;;;;;;5063061;28;20111;-68
2022/04/17 06:45:39;;;;;;;5.35;3.10;;;15.30;56.50;;;;;;5082938;28;20064;-68
2022/04/17 06:48:20;;;;;;;4.85;2.95;;;14.60;53.70;;;;;;5084256;28;20059;-68
2022/04/17 06:50:47;;;;;;;6.85;2.92;;;13.50;57.70;;;;;;5078127;28;20527;-68
2022/04/17 06:53:14;;;;;;;7.07;3.30;;;13.20;60.90;;;;;;5084857;28;20047;-68
2022/04/17 06:55:42;;;;;;;8.68;3.08;;;13.20;57.80;;;;;;5085884;28;20147;-67
2022/04/17 06:58:08;;;;;;;;;;;12.80;59.80;;;;;;5085779;28;20127;-68
2022/04/17 07:00:34;;;;;;;5.10;2.60;;;12.70;60.90;;;;;;5084947;28;20022;-68
2022/04/17 07:03:00;;;;;;;4.25;2.58;;;12.80;62.20;;;;;;5084386;28;20534;-67
2022/04/17 07:05:32;;;;;;;;;;;12.70;60.60;;;;;;5081124;28;20047;-68
2022/04/17 07:08:01;;;;;;;3.10;2.15;;;12.30;61.70;;;;;;5074485;28;19927;-68
2022/04/17 07:10:28;;;;;;;7.05;3.20;;;12.60;65.20;;;;;;5085599;28;20040;-67
2022/04/17 07:13:03;;;;;;;5.05;2.58;;;12.20;62.30;;;;;;5065558;28;20033;-67
2022/04/17 07:15:38;;;;;;;5.55;2.60;;;12.00;63.70;;;;;;5081105;28;20115;-68
2022/04/17 07:18:03;;;;;;;;;;;11.80;62.30;;;;;;5085200;28;20069;-68
2022/04/17 07:20:30;;;;;;;6.22;3.35;;;12.00;63.00;;;;;;5084476;28;19916;-67
2022/04/17 07:22:56;;;;;;;5.90;2.75;;;11.50;62.10;;;;;;5074409;28;20119;-69
2022/04/17 07:25:21;;;;;;;;;;;11.60;63.80;;;;;;5086245;28;20126;-67
2022/04/17 07:27:49;;;;;;;6.22;2.42;;;11.40;63.30;;;;;;5087478;28;19932;-68
2022/04/17 07:30:22;;;;;;;8.85;3.10;;;11.70;64.70;;;;;;5085611;28;20082;-68
2022/04/17 07:32:50;;;;;;;7.70;2.72;;;12.60;62.90;;;;;;5092253;28;20124;-68
2022/04/17 07:35:17;;;;;;;5.55;2.67;;;13.20;59.40;;;;;;5087916;28;20040;-68
2022/04/17 07:37:53;;;;;;;4.05;2.50;;;13.10;58.50;;;;;;5081953;28;20483;-67
2022/04/17 07:40:22;;;;;;;;;;;13.00;61.00;;;;;;5089441;28;20550;-69
2022/04/17 07:42:59;;;;;;;10.23;3.10;;;12.90;58.90;;;;;;5087930;28;19924;-67
2022/04/17 07:45:29;;;;;;;4.43;2.72;;;12.60;58.90;;;;;;5089728;28;20438;-68
2022/04/17 07:47:55;;;;;;;5.63;2.20;;;12.90;58.90;;;;;;5088464;28;20044;-68
2022/04/17 07:50:23;;;;;;;;;;;12.70;58.40;;;;;;5086567;28;20046;-67
2022/04/17 07:52:49;;;;;;;5.20;2.67;;;12.90;60.40;;;;;;5088892;28;19924;-67
2022/04/17 07:55:16;;;;;;;5.40;3.00;;;13.40;57.30;;;;;;5076170;28;20036;-66
2022/04/17 08:00:44;;;;;;;3.85;2.45;;;14.00;58.60;;;;;;5080085;28;20044;-67
2022/04/17 08:03:21;;;;;;;4.45;2.15;;;14.90;53.90;;;;;;5083996;28;20040;-67
2022/04/17 08:05:48;;;;;;;6.22;2.15;;;14.90;54.80;;;;;;5089005;28;20040;-67
2022/04/17 08:08:14;;;;;;;3.25;2.03;;;15.70;54.30;;;;;;5080955;28;20036;-67
2022/04/17 08:10:41;;;;;;;3.30;1.98;;;17.30;52.60;;;;;;5088819;28;20063;-67
2022/04/17 08:13:06;;;;;;;5.70;2.40;;;18.30;48.40;;;;;;5087139;28;20090;-68
2022/04/17 08:15:33;;;;;;;3.88;2.15;;;18.00;46.70;;;;;;5080157;28;20104;-68
2022/04/17 08:17:58;;;;;;;2.97;1.88;;;17.90;48.10;;;;;;5087651;28;20676;-68
2022/04/17 08:20:24;;;;;;;3.25;1.90;;;17.80;47.90;;;;;;5087508;28;20060;-69
2022/04/17 08:22:50;;;;;;;4.25;2.25;;;18.00;45.50;;;;;;5088203;28;20039;-68
2022/04/17 08:25:15;;;;;;;3.33;2.33;;;18.00;46.00;;;;;;5087814;28;20043;-68
2022/04/17 08:27:52;;;;;;;3.97;1.92;;;18.00;45.80;;;;;;5088535;28;20040;-68
2022/04/17 08:30:26;;;;;;;5.40;2.10;;;17.40;44.20;;;;;;5086875;28;20043;-68
2022/04/17 08:32:52;;;;;;;5.00;2.33;;;17.50;44.40;;;;;;5087825;28;20040;-68
2022/04/17 08:35:18;;;;;;;4.07;1.98;;;17.70;45.40;;;;;;5088393;28;20039;-68
2022/04/17 08:37:44;;;;;;;5.35;1.88;;;16.90;45.20;;;;;;5085367;28;20654;-68
2022/04/17 08:40:11;;;;;;;3.85;1.83;;;17.00;47.30;;;;;;5087465;28;20555;-67
2022/04/17 08:42:38;;;;;;;5.35;1.70;;;17.10;47.70;;;;;;5087551;28;20039;-67
2022/04/17 08:45:04;;;;;;;3.83;2.13;;;16.30;47.70;;;;;;5087111;28;20040;-67
2022/04/17 08:47:31;;;;;;;2.92;1.90;;;15.20;49.70;;;;;;5088586;28;20040;-68
2022/04/17 08:49:57;;;;;;;10.63;2.28;;;14.10;51.90;;;;;;5090054;28;20129;-67
2022/04/17 08:52:23;;;;;;;4.20;2.03;;;13.30;53.30;;;;;;5087320;28;20052;-67
2022/04/17 08:54:49;;;;;;;;;;;13.00;56.30;;;;;;5085303;28;20040;-67
2022/04/17 08:57:20;;;;;;;5.05;2.40;;;12.80;57.50;;;;;;5087513;28;19920;-69
2022/04/17 08:59:46;;;;;;;3.72;2.08;;;12.90;57.40;;;;;;5086648;28;20422;-68
2022/04/17 09:02:12;;;;;;;;;;;12.80;55.30;;;;;;5086517;28;20032;-68
2022/04/17 09:04:41;;;;;;;4.10;2.13;;;12.40;56.70;;;;;;5086356;28;20573;-67
2022/04/17 09:07:09;;;;;;;5.55;1.98;;;12.30;58.60;;;;;;5082549;28;20044;-68
2022/04/17 09:09:49;;;;;;;5.10;2.42;;;12.00;57.50;;;;;;5085145;28;20040;-67
2022/04/17 09:12:22;;;;;;;4.60;2.40;;;11.90;60.80;;;;;;5086915;28;20052;-67
2022/04/17 09:14:48;;;;;;;3.92;2.10;;;12.10;60.70;;;;;;5087244;28;20219;-67
2022/04/17 09:17:15;;;;;;;;;;;12.40;58.60;;;;;;5087805;28;20177;-67
2022/04/17 09:19:42;;;;;;;9.90;2.90;;;12.60;60.50;;;;;;5087249;28;19923;-67
2022/04/17 09:22:09;;;;;;;4.28;2.40;;;12.60;58.00;;;;;;5085391;28;20436;-68
2022/04/17 09:24:42;;;;;;;6.72;2.40;;;12.60;56.10;;;;;;5086953;28;20109;-67
2022/04/17 09:27:09;;;;;;;6.15;2.55;;;12.60;58.50;;;;;;5086152;28;20067;-68
2022/04/17 09:29:37;;;;;;;7.97;2.75;;;12.90;60.90;;;;;;5087302;28;20048;-68
2022/04/17 09:32:12;;;;;;;5.95;2.38;;;12.90;57.40;;;;;;5084806;28;20059;-67
2022/04/17 09:34:50;;;;;;;5.38;2.42;;;12.60;57.30;;;;;;5086860;28;20047;-67
2022/04/17 09:37:20;;;;;;;4.47;2.53;;;12.60;56.10;;;;;;5081184;28;20451;-67
2022/04/17 09:39:47;;;;;;;5.53;3.17;;;12.70;60.30;;;;;;5085271;28;20040;-67
2022/04/17 09:42:19;;;;;;;5.55;2.70;;;12.60;58.60;;;;;;5086436;28;20491;-67
2022/04/17 09:44:46;;;;;;;6.07;2.70;;;12.80;58.30;;;;;;5086494;28;20040;-67
2022/04/17 09:47:18;;;;;;;5.35;2.50;;;12.60;56.10;;;;;;5086487;28;20044;-67
2022/04/17 09:50:05;;;;;;;4.13;2.47;;;12.80;60.10;;;;;;5086204;28;20032;-68
2022/04/17 09:52:33;;;;;;;3.88;2.30;;;12.90;58.10;;;;;;5086096;28;20047;-68
2022/04/17 09:55:00;;;;;;;4.18;3.03;;;12.70;54.20;;;;;;5086382;28;20496;-68
2022/04/17 09:57:34;;;;;;;4.45;2.60;;;12.90;57.30;;;;;;5085895;28;20145;-68
2022/04/17 10:00:12;;;;;;;6.65;3.10;;;13.10;57.00;;;;;;5084703;28;20127;-68
2022/04/17 10:02:40;;;;;;;4.38;2.85;;;13.40;56.00;;;;;;5082255;28;20074;-69
2022/04/17 10:05:08;;;;;;;4.93;2.90;;;13.30;55.50;;;;;;5083841;28;20036;-69
2022/04/17 10:07:37;;;;;;;5.88;3.30;;;13.50;56.20;;;;;;5082298;28;20044;-69
2022/04/17 10:10:04;;;;;;;5.75;3.03;;;13.70;55.60;;;;;;5078382;28;20036;-73
2022/04/17 10:12:29;;;;;;;6.68;3.20;;;13.70;53.60;;;;;;5085675;28;20055;-69
2022/04/17 10:14:55;;;;;;;;;;;13.40;53.50;;;;;;5085713;28;20040;-69
2022/04/17 10:17:22;;;;;;;5.03;3.08;;;13.50;56.80;;;;;;5083640;28;20049;-68
2022/04/17 10:19:49;;;;;;;5.80;2.83;;;13.20;52.60;;;;;;5085743;28;20768;-69
2022/04/17 10:22:18;;;;;;;5.97;3.25;;;13.00;53.00;;;;;;5085165;28;20586;-68
2022/04/17 10:24:54;;;;;;;6.55;3.63;;;12.60;56.00;;;;;;5085877;28;20048;-71
2022/04/17 10:27:24;;;;;;;6.93;4.05;;;12.30;56.30;;;;;;5086186;28;20412;-70
2022/04/17 10:29:55;;;;;;;4.60;3.63;;;12.40;59.80;;;;;;5086065;28;20114;-71
2022/04/17 10:33:14;;;;;;;6.90;3.92;;;12.80;58.30;;;;;;5085135;28;20036;-68
2022/04/17 10:36:19;;;;;;;5.88;3.63;;;12.90;57.30;;;;;;5086229;28;20047;-68
2022/04/17 10:38:49;;;;;;;7.15;4.18;;;12.80;57.00;;;;;;5085110;28;20438;-68
2022/04/17 10:41:25;;;;;;;5.75;3.35;;;13.10;59.20;;;;;;5083341;28;20031;-67
2022/04/17 10:43:50;;;;;;;8.18;3.67;;;13.20;57.50;;;;;;5064609;28;20036;-65
2022/04/17 10:46:17;;;;;;;;;;;12.80;55.70;;;;;;5081956;28;20040;-66
2022/04/17 10:48:47;;;;;;;7.20;3.67;;;12.60;55.20;;;;;;5077382;28;20480;-65
2022/04/17 10:51:34;;;;;;;8.35;3.75;;;12.80;54.00;;;;;;5074686;28;20120;-66
2022/04/17 10:54:09;;;;;;;8.80;3.72;;;13.00;58.60;;;;;;5081939;28;20125;-66
2022/04/17 10:56:37;;;;;;;5.82;3.28;;;13.40;57.80;;;;;;5072225;28;20068;-65
2022/04/17 10:59:16;;;;;;;6.20;3.42;;;13.20;56.10;;;;;;5076669;28;20338;-67
2022/04/17 11:01:44;;;;;;;5.95;3.20;;;13.30;57.60;;;;;;5077066;28;20139;-66
2022/04/17 11:04:24;;;;;;;5.65;3.25;;;13.50;55.00;;;;;;5084306;28;20043;-66
2022/04/17 11:07:05;;;;;;;9.07;3.60;;;13.50;53.80;;;;;;5081335;28;20185;-66
2022/04/17 11:09:42;;;;;;;8.00;3.53;;;13.30;52.00;;;;;;5083971;28;20051;-67
2022/04/17 11:12:29;;;;;;;6.55;3.72;;;13.30;58.30;;;;;;5081230;28;20067;-67
2022/04/17 11:15:01;;;;;;;8.63;3.20;;;13.50;57.00;;;;;;5083353;28;20032;-67
2022/04/17 11:17:31;;;;;;;6.90;3.47;;;13.60;57.10;;;;;;5084805;28;20572;-66
2022/04/17 11:19:58;;;;;;;3.25;2.25;;;13.70;53.50;;;;;;5082927;28;20430;-66
2022/04/17 11:22:32;;;;;;;7.68;3.38;;;13.60;51.90;;;;;;5076370;28;20311;-66
2022/04/17 11:24:58;;;;;;;6.25;2.65;;;13.70;50.90;;;;;;5081867;28;20158;-66
2022/04/17 11:27:36;;;;;;;;;;;13.50;49.70;;;;;;5084837;28;20530;-66
2022/04/17 11:30:04;;;;;;;5.28;2.63;;;13.30;50.40;;;;;;5085088;28;19916;-67
2022/04/17 11:32:29;;;;;;;3.97;1.70;;;13.10;46.30;;;;;;5084383;28;20134;-67
2022/04/17 11:34:55;;;;;;;;;;;13.00;51.40;;;;;;5085492;28;20916;-67
2022/04/17 11:37:26;;;;;;;4.05;2.05;;;13.40;49.10;;;;;;5085044;28;19951;-68
2022/04/17 11:39:53;;;;;;;28.48;12.95;;;13.50;47.60;;;;;;5084922;28;20047;-68
2022/04/17 11:42:19;;;;;;;8.45;3.63;;;13.50;48.80;;;;;;5084309;28;20070;-68
2022/04/17 11:44:45;;;;;;;;;;;13.20;46.50;;;;;;5085017;28;20046;-68
2022/04/17 11:47:15;;;;;;;2.90;1.40;;;12.90;42.50;;;;;;5084708;28;19920;-67
2022/04/17 11:49:42;;;;;;;2.88;1.60;;;12.80;45.40;;;;;;5083576;28;20052;-68
2022/04/17 11:52:16;;;;;;;8.35;2.00;;;12.70;42.70;;;;;;5084452;28;20075;-67
2022/04/17 11:54:43;;;;;;;9.10;1.83;;;12.80;44.90;;;;;;5084383;28;20067;-68
2022/04/17 11:57:09;;;;;;;3.13;1.40;;;12.80;42.20;;;;;;5084821;28;20051;-66
2022/04/17 11:59:44;;;;;;;;;;;12.70;44.00;;;;;;5085448;28;20044;-65
2022/04/17 12:02:16;;;;;;;2.97;1.95;;;12.80;42.60;;;;;;5084135;28;19961;-66
2022/04/17 12:04:45;;;;;;;2.42;1.60;;;13.10;47.30;;;;;;5083668;28;20040;-65
2022/04/17 12:07:12;;;;;;;2.35;1.55;;;13.30;43.20;;;;;;5084355;28;20604;-66
2022/04/17 12:09:38;;;;;;;3.03;1.73;;;13.10;39.30;;;;;;5084296;28;20052;-67
2022/04/17 12:12:18;;;;;;;2.95;1.60;;;13.20;43.80;;;;;;5085030;28;20139;-66
2022/04/17 12:14:46;;;;;;;5.32;1.50;;;13.50;47.80;;;;;;5088181;28;20064;-68
2022/04/17 12:17:13;;;;;;;4.93;1.70;;;13.70;47.00;;;;;;5086643;28;20044;-67
2022/04/17 12:19:47;;;;;;;3.50;1.80;;;13.80;44.20;;;;;;5087120;28;20086;-68
2022/04/17 12:22:14;;;;;;;2.80;2.05;;;13.80;47.20;;;;;;5088172;28;20058;-68
2022/04/17 12:24:46;;;;;;;5.78;1.80;;;13.30;44.90;;;;;;5088045;28;20036;-68
2022/04/17 12:27:19;;;;;;;5.15;1.80;;;12.90;44.30;;;;;;5087650;28;20141;-68
2022/04/17 12:29:50;;;;;;;3.20;1.63;;;13.00;46.10;;;;;;5087736;28;20637;-68
2022/04/17 12:32:17;;;;;;;5.00;1.85;;;13.10;43.50;;;;;;5086993;28;20048;-69
2022/04/17 12:34:47;;;;;;;3.13;1.90;;;13.00;44.80;;;;;;5086558;28;20032;-69
2022/04/17 12:37:24;;;;;;;2.13;1.60;;;13.10;45.10;;;;;;5086965;28;20479;-68
2022/04/17 12:39:50;;;;;;;2.67;1.70;;;13.10;46.10;;;;;;5086660;22;20067;-69
2022/04/17 12:42:18;;;;;;;;;;;13.10;47.40;;;;;;5088519;28;20113;-68
2022/04/17 12:44:47;;;;;;;3.08;2.03;;;13.10;45.30;;;;;;5088291;28;19939;-67
2022/04/17 12:47:14;;;;;;;4.57;2.08;;;13.20;47.10;;;;;;5087145;28;20047;-69
2022/04/17 12:49:40;;;;;;;3.15;1.42;;;13.00;45.20;;;;;;5075700;28;20584;-68
2022/04/17 12:52:06;;;;;;;5.68;2.15;;;12.90;45.00;;;;;;5079554;28;20697;-69
2022/04/17 12:54:34;;;;;;;2.70;1.75;;;13.00;47.40;;;;;;5079631;28;20044;-67
2022/04/17 12:57:13;;;;;;;3.97;1.50;;;13.20;47.60;;;;;;5074455;28;20044;-66
2022/04/17 12:59:45;;;;;;;3.30;1.58;;;13.50;50.50;;;;;;5078784;28;20480;-67
2022/04/17 13:02:16;;;;;;;3.75;1.88;;;13.90;46.60;;;;;;5049271;28;20045;-67
2022/04/17 13:04:46;;;;;;;2.53;1.58;;;14.00;44.50;;;;;;5062084;28;20044;-67
2022/04/17 13:07:17;;;;;;;5.32;1.67;;;13.60;42.60;;;;;;5060413;28;20045;-68
2022/04/17 13:09:58;;;;;;;4.63;1.95;;;13.70;45.50;;;;;;5064546;28;20127;-66
2022/04/17 13:12:36;;;;;;;4.28;1.55;;;13.90;45.00;;;;;;5066023;28;20108;-65
2022/04/17 13:15:06;;;;;;;4.78;2.00;;;14.00;44.60;;;;;;5057357;28;20108;-65
2022/04/17 13:17:50;;;;;;;5.80;2.35;;;14.00;43.00;;;;;;5066003;28;20044;-65
2022/04/17 13:20:18;;;;;;;6.13;2.42;;;14.10;44.90;;;;;;5058369;28;20048;-68
2022/04/17 13:22:43;;;;;;;2.83;1.77;;;14.00;45.80;;;;;;5064521;28;20122;-69
2022/04/17 13:25:09;;;;;;;;;;;14.10;47.10;;;;;;5043321;28;20548;-67
2022/04/17 13:27:35;;;;;;;6.38;2.20;;;14.10;49.90;;;;;;5053938;28;19916;-70